sensor_id;sensor_type;location;lat;lon;timestamp;temperature;humidity
20698;DHT22;10508;50.956;4.640;2023-01-09T04:42:35;8.00;99.90
20698;DHT22;10508;50.956;4.640;2023-01-09T04:45:01;8.00;99.90
20698;DHT22;10508;50.956;4.640;2023-01-09T04:52:23;7.90;99.90
20698;DHT22;10508;50.956;4.640;2023-01-09T04:54:58;8.10;99.90
20698;DHT22;10508;50.956;4.640;2023-01-09T04:57:23;8.10;99.90
20698;DHT22;10508;50.956;4.640;2023-01-09T04:59:49;8.10;99.90
20698;DHT22;10508;50.956;4.640;2023-01-09T05:02:14;8.10;99.90
20698;DHT22;10508;50.956;4.640;2023-01-09T05:04:59;6.70;99.90
20698;DHT22;10508;50.956;4.640;2023-01-09T05:07:25;8.20;99.90
20698;DHT22;10508;50.956;4.640;2023-01-09T05:09:51;8.10;99.90
20698;DHT22;10508;50.956;4.640;2023-01-09T05:12:16;8.10;99.90
20698;DHT22;10508;50.956;4.640;2023-01-09T05:14:42;8.10;99.90
20698;DHT22;10508;50.956;4.640;2023-01-09T05:17:07;8.20;99.90
20698;DHT22;10508;50.956;4.640;2023-01-09T05:19:33;8.20;99.90
20698;DHT22;10508;50.956;4.640;2023-01-09T05:21:59;8.20;99.90
20698;DHT22;10508;50.956;4.640;2023-01-09T05:24:24;8.20;99.90
20698;DHT22;10508;50.956;4.640;2023-01-09T05:26:50;8.20;99.90
20698;DHT22;10508;50.956;4.640;2023-01-09T05:29:16;8.20;99.90
20698;DHT22;10508;50.956;4.640;2023-01-09T05:31:41;8.20;99.90
20698;DHT22;10508;50.956;4.640;2023-01-09T05:34:07;8.20;99.90
20698;DHT22;10508;50.956;4.640;2023-01-09T05:36:32;8.20;99.90
20698;DHT22;10508;50.956;4.640;2023-01-09T05:38:58;8.30;99.90
20698;DHT22;10508;50.956;4.640;2023-01-09T05:41:24;8.30;99.90
20698;DHT22;10508;50.956;4.640;2023-01-09T05:43:50;8.20;99.90
20698;DHT22;10508;50.956;4.640;2023-01-09T05:46:16;8.20;99.90
20698;DHT22;10508;50.956;4.640;2023-01-09T05:48:42;8.10;99.90
20698;DHT22;10508;50.956;4.640;2023-01-09T05:51:08;8.20;99.90
20698;DHT22;10508;50.956;4.640;2023-01-09T05:53:34;8.10;99.90
20698;DHT22;10508;50.956;4.640;2023-01-09T05:56:00;8.20;99.90
20698;DHT22;10508;50.956;4.640;2023-01-09T05:58:25;8.20;99.90
20698;DHT22;10508;50.956;4.640;2023-01-09T06:00:52;8.10;99.90
20698;DHT22;10508;50.956;4.640;2023-01-09T06:03:18;8.10;99.90
20698;DHT22;10508;50.956;4.640;2023-01-09T06:05:43;8.10;99.90
20698;DHT22;10508;50.956;4.640;2023-01-09T06:08:09;8.00;99.90
20698;DHT22;10508;50.956;4.640;2023-01-09T06:10:35;8.10;99.90
20698;DHT22;10508;50.956;4.640;2023-01-09T06:13:00;8.10;99.90
20698;DHT22;10508;50.956;4.640;2023-01-09T06:15:26;8.10;99.90
20698;DHT22;10508;50.956;4.640;2023-01-09T06:17:52;8.10;99.90
20698;DHT22;10508;50.956;4.640;2023-01-09T06:20:18;8.10;99.90
20698;DHT22;10508;50.956;4.640;2023-01-09T06:22:44;8.20;99.90
20698;DHT22;10508;50.956;4.640;2023-01-09T06:25:10;8.10;99.90
20698;DHT22;10508;50.956;4.640;2023-01-09T06:27:36;8.10;99.90
20698;DHT22;10508;50.956;4.640;2023-01-09T06:30:02;8.20;99.90
20698;DHT22;10508;50.956;4.640;2023-01-09T07:26:18;8.40;99.90
20698;DHT22;10508;50.956;4.640;2023-01-09T07:36:04;8.30;99.90
20698;DHT22;10508;50.956;4.640;2023-01-09T09:14:46;8.30;99.90
20698;DHT22;10508;50.956;4.640;2023-01-09T09:17:44;8.30;99.90
20698;DHT22;10508;50.956;4.640;2023-01-09T09:20:10;8.40;99.90
20698;DHT22;10508;50.956;4.640;2023-01-09T09:25:03;8.20;99.90
20698;DHT22;10508;50.956;4.640;2023-01-09T09:27:30;8.30;99.90
20698;DHT22;10508;50.956;4.640;2023-01-09T09:29:56;8.20;99.90
20698;DHT22;10508;50.956;4.640;2023-01-09T09:32:21;8.30;99.90
20698;DHT22;10508;50.956;4.640;2023-01-09T09:34:47;8.30;99.90
20698;DHT22;10508;50.956;4.640;2023-01-09T09:37:13;8.30;99.90
20698;DHT22;10508;50.956;4.640;2023-01-09T09:39:38;8.30;99.90
20698;DHT22;10508;50.956;4.640;2023-01-09T09:48:28;8.40;99.90
20698;DHT22;10508;50.956;4.640;2023-01-09T09:53:56;8.40;99.90
20698;DHT22;10508;50.956;4.640;2023-01-09T09:56:22;8.30;99.90
20698;DHT22;10508;50.956;4.640;2023-01-09T09:58:55;8.20;99.90
20698;DHT22;10508;50.956;4.640;2023-01-09T10:01:39;8.30;99.90
20698;DHT22;10508;50.956;4.640;2023-01-09T10:04:09;8.40;99.90
20698;DHT22;10508;50.956;4.640;2023-01-09T10:06:48;8.80;99.90
20698;DHT22;10508;50.956;4.640;2023-01-09T10:12:45;8.40;99.90
20698;DHT22;10508;50.956;4.640;2023-01-09T10:16:00;8.20;99.90
20698;DHT22;10508;50.956;4.640;2023-01-09T10:21:19;8.20;99.90
20698;DHT22;10508;50.956;4.640;2023-01-09T10:32:19;8.30;99.90
20698;DHT22;10508;50.956;4.640;2023-01-09T10:37:43;8.40;99.90
20698;DHT22;10508;50.956;4.640;2023-01-09T10:43:43;8.70;99.90
20698;DHT22;10508;50.956;4.640;2023-01-09T10:46:24;8.80;99.90
20698;DHT22;10508;50.956;4.640;2023-01-09T10:48:58;8.70;99.90
20698;DHT22;10508;50.956;4.640;2023-01-09T10:51:30;8.70;99.90
20698;DHT22;10508;50.956;4.640;2023-01-09T10:53:56;8.60;99.90
20698;DHT22;10508;50.956;4.640;2023-01-09T10:56:27;8.60;99.90
20698;DHT22;10508;50.956;4.640;2023-01-09T10:58:55;8.70;99.90
20698;DHT22;10508;50.956;4.640;2023-01-09T11:01:29;8.60;99.90
20698;DHT22;10508;50.956;4.640;2023-01-09T11:03:55;8.80;99.90
20698;DHT22;10508;50.956;4.640;2023-01-09T11:06:35;8.90;99.90
20698;DHT22;10508;50.956;4.640;2023-01-09T11:09:02;9.10;99.90
20698;DHT22;10508;50.956;4.640;2023-01-09T11:11:33;9.10;99.90
20698;DHT22;10508;50.956;4.640;2023-01-09T11:14:15;9.00;99.90
20698;DHT22;10508;50.956;4.640;2023-01-09T11:19:18;9.00;99.90
20698;DHT22;10508;50.956;4.640;2023-01-09T11:21:44;9.00;99.90
20698;DHT22;10508;50.956;4.640;2023-01-09T11:24:22;9.10;99.90
20698;DHT22;10508;50.956;4.640;2023-01-09T11:29:36;9.10;99.90
20698;DHT22;10508;50.956;4.640;2023-01-09T11:32:02;8.90;99.90
20698;DHT22;10508;50.956;4.640;2023-01-09T11:34:30;8.80;99.90
20698;DHT22;10508;50.956;4.640;2023-01-09T11:37:08;8.80;99.90
20698;DHT22;10508;50.956;4.640;2023-01-09T11:39:36;8.80;99.90
20698;DHT22;10508;50.956;4.640;2023-01-09T11:42:08;8.70;99.90
20698;DHT22;10508;50.956;4.640;2023-01-09T11:44:42;8.80;99.90
20698;DHT22;10508;50.956;4.640;2023-01-09T11:47:24;8.90;99.90
20698;DHT22;10508;50.956;4.640;2023-01-09T11:53:13;9.10;99.90
20698;DHT22;10508;50.956;4.640;2023-01-09T11:55:40;9.20;99.90
20698;DHT22;10508;50.956;4.640;2023-01-09T11:58:20;10.00;99.90
20698;DHT22;10508;50.956;4.640;2023-01-09T12:04:10;10.80;99.90
20698;DHT22;10508;50.956;4.640;2023-01-09T12:09:50;10.30;99.90
20698;DHT22;10508;50.956;4.640;2023-01-09T12:12:48;10.00;99.90
20698;DHT22;10508;50.956;4.640;2023-01-09T12:18:18;9.50;99.90
20698;DHT22;10508;50.956;4.640;2023-01-09T12:23:33;9.40;99.90
20698;DHT22;10508;50.956;4.640;2023-01-09T12:31:32;9.40;99.90
20698;DHT22;10508;50.956;4.640;2023-01-09T12:45:50;9.50;99.90
20698;DHT22;10508;50.956;4.640;2023-01-09T12:48:39;9.50;99.90
20698;DHT22;10508;50.956;4.640;2023-01-09T12:51:30;9.30;99.90
20698;DHT22;10508;50.956;4.640;2023-01-09T12:56:39;9.30;99.90
20698;DHT22;10508;50.956;4.640;2023-01-09T12:59:28;9.30;99.90
20698;DHT22;10508;50.956;4.640;2023-01-09T13:04:57;9.40;99.90
20698;DHT22;10508;50.956;4.640;2023-01-09T13:07:31;9.40;99.90
20698;DHT22;10508;50.956;4.640;2023-01-09T13:10:13;9.30;99.90
20698;DHT22;10508;50.956;4.640;2023-01-09T13:12:43;9.30;99.90
20698;DHT22;10508;50.956;4.640;2023-01-09T13:15:31;9.30;99.90
20698;DHT22;10508;50.956;4.640;2023-01-09T13:18:22;9.30;99.90
20698;DHT22;10508;50.956;4.640;2023-01-09T13:20:53;9.30;99.90
20698;DHT22;10508;50.956;4.640;2023-01-09T13:23:43;9.40;99.90
20698;DHT22;10508;50.956;4.640;2023-01-09T13:26:19;9.50;99.90
20698;DHT22;10508;50.956;4.640;2023-01-09T13:28:56;9.60;99.90
20698;DHT22;10508;50.956;4.640;2023-01-09T13:31:39;9.80;99.90
20698;DHT22;10508;50.956;4.640;2023-01-09T13:34:16;10.00;99.90
20698;DHT22;10508;50.956;4.640;2023-01-09T13:36:54;10.00;99.90
20698;DHT22;10508;50.956;4.640;2023-01-09T13:39:27;10.00;99.90
20698;DHT22;10508;50.956;4.640;2023-01-09T13:41:56;10.00;99.90
20698;DHT22;10508;50.956;4.640;2023-01-09T13:44:41;10.00;99.90
20698;DHT22;10508;50.956;4.640;2023-01-09T13:47:19;9.90;99.90
20698;DHT22;10508;50.956;4.640;2023-01-09T13:52:31;9.80;99.90
20698;DHT22;10508;50.956;4.640;2023-01-09T13:54:58;9.90;99.90
20698;DHT22;10508;50.956;4.640;2023-01-09T14:05:16;10.10;99.90
20698;DHT22;10508;50.956;4.640;2023-01-09T14:08:05;10.10;99.90
20698;DHT22;10508;50.956;4.640;2023-01-09T14:10:37;10.10;99.90
20698;DHT22;10508;50.956;4.640;2023-01-09T14:13:16;9.90;99.90
20698;DHT22;10508;50.956;4.640;2023-01-09T14:15:43;9.80;99.90
20698;DHT22;10508;50.956;4.640;2023-01-09T14:18:25;9.80;99.90
20698;DHT22;10508;50.956;4.640;2023-01-09T14:20:59;9.70;99.90
20698;DHT22;10508;50.956;4.640;2023-01-09T14:24:03;9.80;99.90
20698;DHT22;10508;50.956;4.640;2023-01-09T14:26:50;9.70;99.90
20698;DHT22;10508;50.956;4.640;2023-01-09T14:35:12;9.60;99.90
20698;DHT22;10508;50.956;4.640;2023-01-09T14:37:38;9.60;99.90
20698;DHT22;10508;50.956;4.640;2023-01-09T14:40:06;9.50;99.90
20698;DHT22;10508;50.956;4.640;2023-01-09T14:42:33;9.50;99.90
20698;DHT22;10508;50.956;4.640;2023-01-09T14:45:18;9.40;99.90
20698;DHT22;10508;50.956;4.640;2023-01-09T14:47:55;9.40;99.90
20698;DHT22;10508;50.956;4.640;2023-01-09T14:53:12;9.30;99.90
20698;DHT22;10508;50.956;4.640;2023-01-09T14:55:59;9.40;99.90
20698;DHT22;10508;50.956;4.640;2023-01-09T15:03:41;9.40;99.90
20698;DHT22;10508;50.956;4.640;2023-01-09T15:06:15;9.40;99.90
20698;DHT22;10508;50.956;4.640;2023-01-09T15:08:44;9.40;99.90
20698;DHT22;10508;50.956;4.640;2023-01-09T15:11:11;9.30;99.90
20698;DHT22;10508;50.956;4.640;2023-01-09T15:13:43;9.30;99.90
20698;DHT22;10508;50.956;4.640;2023-01-09T15:16:17;9.30;99.90
20698;DHT22;10508;50.956;4.640;2023-01-09T15:18:46;9.20;99.90
20698;DHT22;10508;50.956;4.640;2023-01-09T15:21:22;9.20;99.90
20698;DHT22;10508;50.956;4.640;2023-01-09T15:23:48;9.20;99.90
20698;DHT22;10508;50.956;4.640;2023-01-09T15:26:24;9.20;99.90
20698;DHT22;10508;50.956;4.640;2023-01-09T15:28:52;9.10;99.90
20698;DHT22;10508;50.956;4.640;2023-01-09T15:31:21;9.10;99.90
20698;DHT22;10508;50.956;4.640;2023-01-09T15:33:48;9.00;99.90
20698;DHT22;10508;50.956;4.640;2023-01-09T15:36:23;9.10;99.90
20698;DHT22;10508;50.956;4.640;2023-01-09T15:38:49;9.00;99.90
20698;DHT22;10508;50.956;4.640;2023-01-09T15:41:18;9.00;99.90
20698;DHT22;10508;50.956;4.640;2023-01-09T15:44:16;9.00;99.90
20698;DHT22;10508;50.956;4.640;2023-01-09T15:46:43;9.00;99.90
20698;DHT22;10508;50.956;4.640;2023-01-09T15:49:11;9.00;99.90
20698;DHT22;10508;50.956;4.640;2023-01-09T15:51:39;9.00;99.90
20698;DHT22;10508;50.956;4.640;2023-01-09T15:54:16;9.00;99.90
20698;DHT22;10508;50.956;4.640;2023-01-09T15:56:42;8.90;99.90
20698;DHT22;10508;50.956;4.640;2023-01-09T15:59:24;8.90;99.90
20698;DHT22;10508;50.956;4.640;2023-01-09T16:02:02;8.90;99.90
20698;DHT22;10508;50.956;4.640;2023-01-09T16:04:49;8.90;99.90
20698;DHT22;10508;50.956;4.640;2023-01-09T16:07:17;8.90;99.90
20698;DHT22;10508;50.956;4.640;2023-01-09T16:09:45;8.80;99.90
20698;DHT22;10508;50.956;4.640;2023-01-09T16:12:22;8.80;99.90
20698;DHT22;10508;50.956;4.640;2023-01-09T16:14:52;8.80;99.90
20698;DHT22;10508;50.956;4.640;2023-01-09T16:17:20;8.70;99.90
20698;DHT22;10508;50.956;4.640;2023-01-09T16:19:50;8.80;99.90
20698;DHT22;10508;50.956;4.640;2023-01-09T16:22:25;8.80;99.90
20698;DHT22;10508;50.956;4.640;2023-01-09T16:24:55;8.70;99.90
20698;DHT22;10508;50.956;4.640;2023-01-09T16:27:31;8.70;99.90
20698;DHT22;10508;50.956;4.640;2023-01-09T16:32:35;8.70;99.90
20698;DHT22;10508;50.956;4.640;2023-01-09T16:35:20;8.70;99.90
20698;DHT22;10508;50.956;4.640;2023-01-09T16:37:46;8.60;99.90
20698;DHT22;10508;50.956;4.640;2023-01-09T16:42:57;8.70;99.90
20698;DHT22;10508;50.956;4.640;2023-01-09T16:45:30;8.60;99.90
20698;DHT22;10508;50.956;4.640;2023-01-09T16:47:57;8.50;99.90
20698;DHT22;10508;50.956;4.640;2023-01-09T16:50:24;8.40;99.90
20698;DHT22;10508;50.956;4.640;2023-01-09T16:52:50;8.40;99.90
20698;DHT22;10508;50.956;4.640;2023-01-09T16:55:16;8.40;99.90
20698;DHT22;10508;50.956;4.640;2023-01-09T16:57:41;8.40;99.90
20698;DHT22;10508;50.956;4.640;2023-01-09T17:00:18;8.30;99.90
20698;DHT22;10508;50.956;4.640;2023-01-09T17:02:44;8.30;99.90
20698;DHT22;10508;50.956;4.640;2023-01-09T17:05:10;8.30;99.90
20698;DHT22;10508;50.956;4.640;2023-01-09T17:07:35;8.40;99.90
20698;DHT22;10508;50.956;4.640;2023-01-09T17:10:03;8.30;99.90
20698;DHT22;10508;50.956;4.640;2023-01-09T17:12:29;8.30;99.90
20698;DHT22;10508;50.956;4.640;2023-01-09T17:14:55;8.30;99.90
20698;DHT22;10508;50.956;4.640;2023-01-09T17:17:20;8.20;99.90
20698;DHT22;10508;50.956;4.640;2023-01-09T17:19:46;8.20;99.90
20698;DHT22;10508;50.956;4.640;2023-01-09T17:22:13;8.30;99.90
20698;DHT22;10508;50.956;4.640;2023-01-09T17:24:39;8.20;99.90
20698;DHT22;10508;50.956;4.640;2023-01-09T17:27:29;8.20;99.90
20698;DHT22;10508;50.956;4.640;2023-01-09T17:30:14;8.20;99.90
20698;DHT22;10508;50.956;4.640;2023-01-09T17:32:40;8.10;99.90
20698;DHT22;10508;50.956;4.640;2023-01-09T17:35:05;8.10;99.90
20698;DHT22;10508;50.956;4.640;2023-01-09T17:37:31;7.90;99.90
20698;DHT22;10508;50.956;4.640;2023-01-09T17:39:57;7.90;99.90
20698;DHT22;10508;50.956;4.640;2023-01-09T17:42:28;7.80;99.90
20698;DHT22;10508;50.956;4.640;2023-01-09T17:44:54;7.60;99.90
20698;DHT22;10508;50.956;4.640;2023-01-09T17:47:21;7.50;99.90
20698;DHT22;10508;50.956;4.640;2023-01-09T17:49:47;7.50;99.90
20698;DHT22;10508;50.956;4.640;2023-01-09T17:52:13;7.60;99.90
20698;DHT22;10508;50.956;4.640;2023-01-09T17:54:39;7.60;99.90
20698;DHT22;10508;50.956;4.640;2023-01-09T17:57:06;7.60;99.90
20698;DHT22;10508;50.956;4.640;2023-01-09T17:59:32;7.60;99.90
20698;DHT22;10508;50.956;4.640;2023-01-09T18:01:58;7.70;99.90
20698;DHT22;10508;50.956;4.640;2023-01-09T18:04:24;7.70;99.90
20698;DHT22;10508;50.956;4.640;2023-01-09T18:06:49;7.60;99.90
20698;DHT22;10508;50.956;4.640;2023-01-09T18:09:16;7.70;99.90
20698;DHT22;10508;50.956;4.640;2023-01-09T18:11:43;7.60;99.90
20698;DHT22;10508;50.956;4.640;2023-01-09T18:14:09;7.50;99.90
20698;DHT22;10508;50.956;4.640;2023-01-09T18:16:35;7.60;99.90
20698;DHT22;10508;50.956;4.640;2023-01-09T18:19:02;7.70;99.90
20698;DHT22;10508;50.956;4.640;2023-01-09T18:21:28;7.60;99.90
20698;DHT22;10508;50.956;4.640;2023-01-09T18:23:58;7.80;99.90
20698;DHT22;10508;50.956;4.640;2023-01-09T18:26:25;7.70;99.90
20698;DHT22;10508;50.956;4.640;2023-01-09T18:28:55;7.70;99.90
20698;DHT22;10508;50.956;4.640;2023-01-09T18:31:21;7.70;99.90
20698;DHT22;10508;50.956;4.640;2023-01-09T18:33:53;7.60;99.90
20698;DHT22;10508;50.956;4.640;2023-01-09T18:36:24;7.60;99.90
20698;DHT22;10508;50.956;4.640;2023-01-09T18:38:54;7.60;99.90
20698;DHT22;10508;50.956;4.640;2023-01-09T18:41:20;7.60;99.90
20698;DHT22;10508;50.956;4.640;2023-01-09T18:43:59;7.70;99.90
20698;DHT22;10508;50.956;4.640;2023-01-09T18:46:25;7.70;99.90
20698;DHT22;10508;50.956;4.640;2023-01-09T18:49:03;7.70;99.90
20698;DHT22;10508;50.956;4.640;2023-01-09T18:51:31;7.70;99.90
20698;DHT22;10508;50.956;4.640;2023-01-09T18:53:57;7.70;99.90
20698;DHT22;10508;50.956;4.640;2023-01-09T18:56:23;7.70;99.90
20698;DHT22;10508;50.956;4.640;2023-01-09T18:58:52;7.70;99.90
20698;DHT22;10508;50.956;4.640;2023-01-09T19:01:18;7.70;99.90
20698;DHT22;10508;50.956;4.640;2023-01-09T19:03:44;7.70;99.90
20698;DHT22;10508;50.956;4.640;2023-01-09T19:06:29;7.70;99.90
20698;DHT22;10508;50.956;4.640;2023-01-09T19:08:57;7.60;99.90
20698;DHT22;10508;50.956;4.640;2023-01-09T19:11:24;7.70;99.90
20698;DHT22;10508;50.956;4.640;2023-01-09T19:13:50;7.70;99.90
20698;DHT22;10508;50.956;4.640;2023-01-09T19:16:16;7.80;99.90
20698;DHT22;10508;50.956;4.640;2023-01-09T19:18:42;7.70;99.90
20698;DHT22;10508;50.956;4.640;2023-01-09T19:21:10;7.60;99.90
20698;DHT22;10508;50.956;4.640;2023-01-09T19:23:36;7.60;99.90
20698;DHT22;10508;50.956;4.640;2023-01-09T19:26:06;7.50;99.90
20698;DHT22;10508;50.956;4.640;2023-01-09T19:28:42;7.40;99.90
20698;DHT22;10508;50.956;4.640;2023-01-09T19:31:10;7.40;99.90
20698;DHT22;10508;50.956;4.640;2023-01-09T19:33:36;7.30;99.90
20698;DHT22;10508;50.956;4.640;2023-01-09T19:36:02;7.20;99.90
20698;DHT22;10508;50.956;4.640;2023-01-09T19:38:27;7.20;99.90
20698;DHT22;10508;50.956;4.640;2023-01-09T19:40:53;7.10;99.90
20698;DHT22;10508;50.956;4.640;2023-01-09T19:43:19;7.00;99.90
20698;DHT22;10508;50.956;4.640;2023-01-09T19:45:52;6.90;99.90
20698;DHT22;10508;50.956;4.640;2023-01-09T19:48:18;6.90;99.90
20698;DHT22;10508;50.956;4.640;2023-01-09T19:50:43;6.90;99.90
20698;DHT22;10508;50.956;4.640;2023-01-09T19:53:09;6.80;99.90
20698;DHT22;10508;50.956;4.640;2023-01-09T19:55:35;6.80;99.90
20698;DHT22;10508;50.956;4.640;2023-01-09T19:58:03;6.80;99.90
20698;DHT22;10508;50.956;4.640;2023-01-09T20:00:28;6.80;99.90
20698;DHT22;10508;50.956;4.640;2023-01-09T20:02:54;6.70;99.90
20698;DHT22;10508;50.956;4.640;2023-01-09T20:05:20;6.70;99.90
20698;DHT22;10508;50.956;4.640;2023-01-09T20:07:46;6.80;99.90
20698;DHT22;10508;50.956;4.640;2023-01-09T20:10:11;6.90;99.90
20698;DHT22;10508;50.956;4.640;2023-01-09T20:12:55;6.90;99.90
20698;DHT22;10508;50.956;4.640;2023-01-09T20:15:21;6.70;99.90
20698;DHT22;10508;50.956;4.640;2023-01-09T20:17:47;6.90;99.90
20698;DHT22;10508;50.956;4.640;2023-01-09T20:20:12;6.90;99.90
20698;DHT22;10508;50.956;4.640;2023-01-09T20:22:38;6.90;99.90
20698;DHT22;10508;50.956;4.640;2023-01-09T20:25:04;6.90;99.90
20698;DHT22;10508;50.956;4.640;2023-01-09T20:27:32;6.90;99.90
20698;DHT22;10508;50.956;4.640;2023-01-09T20:29:57;6.90;99.90
20698;DHT22;10508;50.956;4.640;2023-01-09T20:32:23;6.90;99.90
20698;DHT22;10508;50.956;4.640;2023-01-09T20:34:49;6.90;99.90
20698;DHT22;10508;50.956;4.640;2023-01-09T20:37:14;6.90;99.90
20698;DHT22;10508;50.956;4.640;2023-01-09T20:39:40;6.80;99.90
20698;DHT22;10508;50.956;4.640;2023-01-09T20:42:05;6.80;99.90
20698;DHT22;10508;50.956;4.640;2023-01-09T20:44:31;6.80;99.90
20698;DHT22;10508;50.956;4.640;2023-01-09T20:46:56;6.80;99.90
20698;DHT22;10508;50.956;4.640;2023-01-09T20:49:22;6.70;99.90
20698;DHT22;10508;50.956;4.640;2023-01-09T20:51:50;6.70;99.90
20698;DHT22;10508;50.956;4.640;2023-01-09T20:54:17;6.60;99.90
20698;DHT22;10508;50.956;4.640;2023-01-09T20:56:45;6.60;99.90
20698;DHT22;10508;50.956;4.640;2023-01-09T20:59:13;6.60;99.90
20698;DHT22;10508;50.956;4.640;2023-01-09T21:01:41;6.50;99.90
20698;DHT22;10508;50.956;4.640;2023-01-09T21:04:07;6.40;99.90
20698;DHT22;10508;50.956;4.640;2023-01-09T21:06:39;6.40;99.90
20698;DHT22;10508;50.956;4.640;2023-01-09T21:09:05;6.40;99.90
20698;DHT22;10508;50.956;4.640;2023-01-09T21:11:31;6.30;99.90
20698;DHT22;10508;50.956;4.640;2023-01-09T21:13:57;6.10;99.90
20698;DHT22;10508;50.956;4.640;2023-01-09T21:16:22;6.10;99.90
20698;DHT22;10508;50.956;4.640;2023-01-09T21:18:49;6.20;99.90
20698;DHT22;10508;50.956;4.640;2023-01-09T21:21:17;6.10;99.90
20698;DHT22;10508;50.956;4.640;2023-01-09T21:23:48;6.10;99.90
20698;DHT22;10508;50.956;4.640;2023-01-09T21:26:16;6.00;99.90
20698;DHT22;10508;50.956;4.640;2023-01-09T21:28:50;6.00;99.90
20698;DHT22;10508;50.956;4.640;2023-01-09T21:31:21;6.00;99.90
20698;DHT22;10508;50.956;4.640;2023-01-09T21:33:49;6.00;99.90
20698;DHT22;10508;50.956;4.640;2023-01-09T21:36:15;6.00;99.90
20698;DHT22;10508;50.956;4.640;2023-01-09T21:38:41;6.00;99.90
20698;DHT22;10508;50.956;4.640;2023-01-09T21:41:07;6.00;99.90
20698;DHT22;10508;50.956;4.640;2023-01-09T21:43:52;6.00;99.90
20698;DHT22;10508;50.956;4.640;2023-01-09T21:46:36;6.00;99.90
20698;DHT22;10508;50.956;4.640;2023-01-09T21:49:17;6.00;99.90
20698;DHT22;10508;50.956;4.640;2023-01-09T21:51:44;6.00;99.90
20698;DHT22;10508;50.956;4.640;2023-01-09T21:54:09;6.00;99.90
20698;DHT22;10508;50.956;4.640;2023-01-09T21:56:35;5.90;99.90
20698;DHT22;10508;50.956;4.640;2023-01-09T21:59:01;5.90;99.90
20698;DHT22;10508;50.956;4.640;2023-01-09T22:01:27;5.90;99.90
20698;DHT22;10508;50.956;4.640;2023-01-09T22:03:54;5.90;99.90
20698;DHT22;10508;50.956;4.640;2023-01-09T22:06:20;5.90;99.90
20698;DHT22;10508;50.956;4.640;2023-01-09T22:08:46;5.90;99.90
20698;DHT22;10508;50.956;4.640;2023-01-09T22:11:11;5.80;99.90
20698;DHT22;10508;50.956;4.640;2023-01-09T22:13:37;5.80;99.90
20698;DHT22;10508;50.956;4.640;2023-01-09T22:16:05;5.90;99.90
20698;DHT22;10508;50.956;4.640;2023-01-09T22:18:32;5.90;99.90
20698;DHT22;10508;50.956;4.640;2023-01-09T22:20:58;5.90;99.90
20698;DHT22;10508;50.956;4.640;2023-01-09T22:23:24;5.90;99.90
20698;DHT22;10508;50.956;4.640;2023-01-09T22:25:50;6.00;99.90
20698;DHT22;10508;50.956;4.640;2023-01-09T22:28:15;6.00;99.90
20698;DHT22;10508;50.956;4.640;2023-01-09T22:30:42;6.00;99.90
20698;DHT22;10508;50.956;4.640;2023-01-09T22:33:08;6.00;99.90
20698;DHT22;10508;50.956;4.640;2023-01-09T22:35:39;6.00;99.90
20698;DHT22;10508;50.956;4.640;2023-01-09T22:38:06;5.90;99.90
20698;DHT22;10508;50.956;4.640;2023-01-09T22:40:32;5.90;99.90
20698;DHT22;10508;50.956;4.640;2023-01-09T22:42:58;5.90;99.90
20698;DHT22;10508;50.956;4.640;2023-01-09T22:45:24;5.90;99.90
20698;DHT22;10508;50.956;4.640;2023-01-09T22:47:49;5.90;99.90
20698;DHT22;10508;50.956;4.640;2023-01-09T22:50:15;5.90;99.90
20698;DHT22;10508;50.956;4.640;2023-01-09T22:52:41;5.90;99.90
20698;DHT22;10508;50.956;4.640;2023-01-09T22:55:07;5.90;99.90
20698;DHT22;10508;50.956;4.640;2023-01-09T22:57:33;5.90;99.90
20698;DHT22;10508;50.956;4.640;2023-01-09T22:59:59;5.90;99.90
20698;DHT22;10508;50.956;4.640;2023-01-09T23:02:25;5.90;99.90
20698;DHT22;10508;50.956;4.640;2023-01-09T23:04:50;5.90;99.90
20698;DHT22;10508;50.956;4.640;2023-01-09T23:07:19;5.90;99.90
20698;DHT22;10508;50.956;4.640;2023-01-09T23:09:45;5.80;99.90
20698;DHT22;10508;50.956;4.640;2023-01-09T23:12:10;5.90;99.90
20698;DHT22;10508;50.956;4.640;2023-01-09T23:14:37;5.90;99.90
20698;DHT22;10508;50.956;4.640;2023-01-09T23:17:05;5.90;99.90
20698;DHT22;10508;50.956;4.640;2023-01-09T23:19:31;5.80;99.90
20698;DHT22;10508;50.956;4.640;2023-01-09T23:21:57;5.90;99.90
20698;DHT22;10508;50.956;4.640;2023-01-09T23:24:25;5.90;99.90
20698;DHT22;10508;50.956;4.640;2023-01-09T23:26:50;5.80;99.90
20698;DHT22;10508;50.956;4.640;2023-01-09T23:29:17;5.80;99.90
20698;DHT22;10508;50.956;4.640;2023-01-09T23:31:43;5.90;99.90
20698;DHT22;10508;50.956;4.640;2023-01-09T23:34:14;5.90;99.90
20698;DHT22;10508;50.956;4.640;2023-01-09T23:36:40;5.90;99.90
20698;DHT22;10508;50.956;4.640;2023-01-09T23:39:05;5.80;99.90
20698;DHT22;10508;50.956;4.640;2023-01-09T23:41:37;5.80;99.90
20698;DHT22;10508;50.956;4.640;2023-01-09T23:44:21;5.70;99.90
20698;DHT22;10508;50.956;4.640;2023-01-09T23:46:47;5.80;99.90
20698;DHT22;10508;50.956;4.640;2023-01-09T23:49:13;5.70;99.90
20698;DHT22;10508;50.956;4.640;2023-01-09T23:51:38;5.80;99.90
20698;DHT22;10508;50.956;4.640;2023-01-09T23:54:04;5.80;99.90
20698;DHT22;10508;50.956;4.640;2023-01-09T23:56:29;5.80;99.90
20698;DHT22;10508;50.956;4.640;2023-01-09T23:58:58;5.80;99.90
